createdAt,value
2022-09-13T00:01:37.712Z,13.82
2022-09-13T00:04:04.928Z,13.81
2022-09-13T00:06:32.178Z,13.80
2022-09-13T00:09:01.322Z,13.86
2022-09-13T00:11:30.862Z,13.98
2022-09-13T00:13:59.569Z,13.91
2022-09-13T00:16:29.516Z,13.92
2022-09-13T00:18:57.491Z,13.92
2022-09-13T00:21:25.779Z,13.90
2022-09-13T00:23:55.083Z,13.91
2022-09-13T00:26:27.178Z,13.92
2022-09-13T00:28:57.414Z,13.92
2022-09-13T00:31:28.131Z,13.89
2022-09-13T00:33:57.292Z,13.82
2022-09-13T00:36:24.664Z,13.78
2022-09-13T00:38:52.079Z,13.69
2022-09-13T00:41:21.292Z,13.60
2022-09-13T00:43:52.256Z,13.53
2022-09-13T00:46:43.691Z,13.50
2022-09-13T00:49:18.310Z,13.45
2022-09-13T00:51:59.545Z,13.37
2022-09-13T00:54:33.353Z,13.32
2022-09-13T00:57:04.626Z,13.33
2022-09-13T01:00:09.937Z,13.33
2022-09-13T01:02:37.598Z,13.39
2022-09-13T01:05:05.270Z,13.30
2022-09-13T01:07:33.718Z,13.30
2022-09-13T01:10:03.224Z,13.30
2022-09-13T01:12:35.754Z,13.24
2022-09-13T01:15:05.318Z,13.22
2022-09-13T01:17:34.567Z,13.18
2022-09-13T01:20:04.000Z,13.05
2022-09-13T01:22:56.191Z,13.08
2022-09-13T01:26:01.098Z,13.11
2022-09-13T01:28:53.302Z,13.10
2022-09-13T01:31:43.265Z,13.10
2022-09-13T01:34:28.794Z,13.09
2022-09-13T01:36:58.886Z,13.10
2022-09-13T01:39:52.708Z,13.19
2022-09-13T01:43:03.490Z,13.12
2022-09-13T01:46:01.377Z,13.14
2022-09-13T01:49:05.595Z,13.07
2022-09-13T01:52:09.143Z,13.05
2022-09-13T01:54:43.269Z,13.08
2022-09-13T01:57:20.328Z,13.10
2022-09-13T01:59:54.675Z,13.07
2022-09-13T02:02:54.407Z,13.00
2022-09-13T02:05:46.231Z,12.91
2022-09-13T02:08:22.397Z,12.77
2022-09-13T02:11:11.679Z,12.73
2022-09-13T02:13:57.495Z,12.69
2022-09-13T02:16:39.934Z,12.70
2022-09-13T02:19:15.651Z,12.72
2022-09-13T02:21:48.852Z,12.71
2022-09-13T02:24:20.080Z,12.74
2022-09-13T02:26:53.079Z,12.82
2022-09-13T02:29:24.782Z,12.86
2022-09-13T02:32:04.569Z,12.92
2022-09-13T02:34:43.704Z,13.02
2022-09-13T02:37:13.553Z,13.15
2022-09-13T02:39:50.523Z,13.18
2022-09-13T02:42:26.480Z,13.29
2022-09-13T02:44:55.757Z,13.35
2022-09-13T02:47:41.769Z,13.41
2022-09-13T02:50:34.089Z,13.44
2022-09-13T02:53:15.884Z,13.57
2022-09-13T02:55:48.835Z,13.62
2022-09-13T02:58:21.511Z,13.69
2022-09-13T03:00:51.182Z,13.71
2022-09-13T03:03:18.715Z,13.74
2022-09-13T03:05:45.793Z,13.75
2022-09-13T03:08:17.782Z,13.82
2022-09-13T03:11:35.208Z,13.83
2022-09-13T03:14:13.830Z,13.89
2022-09-13T03:16:51.789Z,13.93
2022-09-13T03:19:40.701Z,13.98
2022-09-13T03:22:17.254Z,13.95
2022-09-13T03:25:03.610Z,13.93
2022-09-13T03:28:08.515Z,13.90
2022-09-13T03:30:40.482Z,13.86
2022-09-13T03:33:21.730Z,13.88
2022-09-13T03:36:18.838Z,13.85
2022-09-13T03:39:02.261Z,13.80
2022-09-13T03:41:55.527Z,13.74
2022-09-13T03:44:28.462Z,13.63
2022-09-13T03:47:05.239Z,13.61
2022-09-13T03:49:35.476Z,13.48
2022-09-13T03:52:02.888Z,13.43
2022-09-13T03:54:32.966Z,13.30
2022-09-13T03:57:11.539Z,13.19
2022-09-13T03:59:42.256Z,13.13
2022-09-13T04:02:12.915Z,13.06
2022-09-13T04:04:41.688Z,13.01
2022-09-13T04:07:35.152Z,13.02
2022-09-13T04:10:05.884Z,12.98
2022-09-13T04:12:43.965Z,12.95
2022-09-13T04:15:22.897Z,13.02
2022-09-13T04:17:52.443Z,13.00
2022-09-13T04:20:22.208Z,12.97
2022-09-13T04:23:02.385Z,12.91
2022-09-13T04:25:31.833Z,12.90
2022-09-13T04:28:09.217Z,12.82
2022-09-13T04:30:46.344Z,12.70
2022-09-13T04:33:14.079Z,12.66
2022-09-13T04:35:41.266Z,12.64
2022-09-13T04:38:09.393Z,12.60
2022-09-13T04:40:37.578Z,12.65
2022-09-13T04:43:04.981Z,12.60
2022-09-13T04:45:32.120Z,12.55
2022-09-13T04:47:59.122Z,12.73
2022-09-13T04:50:26.563Z,12.76
2022-09-13T04:53:03.581Z,12.85
2022-09-13T04:55:42.987Z,12.81
2022-09-13T04:58:34.750Z,12.90
2022-09-13T05:01:13.210Z,13.00
2022-09-13T05:03:47.637Z,13.11
2022-09-13T05:06:21.753Z,13.11
2022-09-13T05:09:03.357Z,13.23
2022-09-13T05:11:32.474Z,13.35
2022-09-13T05:14:01.218Z,13.49
2022-09-13T05:16:31.650Z,13.65
2022-09-13T05:18:58.923Z,13.78
2022-09-13T05:21:28.135Z,13.91
2022-09-13T05:23:56.627Z,14.12
2022-09-13T05:30:25.079Z,14.73
2022-09-13T05:32:52.210Z,15.02
2022-09-13T05:35:19.165Z,15.32
2022-09-13T05:37:51.117Z,15.62
2022-09-13T05:40:25.781Z,15.98
2022-09-13T05:42:55.281Z,16.29
2022-09-13T05:45:23.759Z,16.60
2022-09-13T05:47:53.217Z,16.93
2022-09-13T05:50:45.199Z,17.19
2022-09-13T05:53:12.315Z,17.40
2022-09-13T05:55:40.578Z,17.68
2022-09-13T05:58:12.200Z,17.93
2022-09-13T06:00:39.727Z,18.05
2022-09-13T06:03:08.753Z,18.25
2022-09-13T06:05:37.172Z,18.38
2022-09-13T06:08:04.198Z,18.54
2022-09-13T06:10:33.055Z,18.66
2022-09-13T06:13:01.922Z,18.72
2022-09-13T06:15:33.307Z,18.85
2022-09-13T06:18:08.300Z,19.01
2022-09-13T06:20:36.573Z,19.13
2022-09-13T06:23:05.496Z,19.25
2022-09-13T06:25:34.213Z,19.45
2022-09-13T06:28:06.424Z,19.67
2022-09-13T06:30:48.532Z,19.94
2022-09-13T06:33:17.072Z,20.10
2022-09-13T06:35:47.717Z,20.15
2022-09-13T06:38:16.533Z,20.24
2022-09-13T06:40:55.059Z,20.31
2022-09-13T06:43:24.887Z,20.33
2022-09-13T06:46:00.430Z,20.31
2022-09-13T06:48:32.961Z,20.40
2022-09-13T06:51:16.840Z,20.35
2022-09-13T06:53:49.200Z,20.41
2022-09-13T06:56:21.195Z,20.36
2022-09-13T06:58:52.548Z,20.35
2022-09-13T07:01:24.484Z,20.50
2022-09-13T07:03:59.168Z,20.75
2022-09-13T07:06:33.654Z,20.82
2022-09-13T07:09:29.622Z,20.67
2022-09-13T07:11:58.972Z,20.56
2022-09-13T07:14:32.499Z,20.42
2022-09-13T07:17:05.706Z,20.45
2022-09-13T07:19:34.770Z,20.71
2022-09-13T07:22:41.820Z,20.95
2022-09-13T07:25:11.608Z,21.14
2022-09-13T07:27:43.366Z,21.38
2022-09-13T07:30:12.770Z,21.41
2022-09-13T07:32:42.754Z,21.51
2022-09-13T07:35:11.875Z,21.59
2022-09-13T07:37:43.592Z,21.60
2022-09-13T07:40:13.792Z,21.72
2022-09-13T07:42:42.140Z,22.12
2022-09-13T07:45:11.512Z,22.43
2022-09-13T07:47:40.505Z,22.50
2022-09-13T07:50:09.145Z,22.62
2022-09-13T07:52:38.825Z,22.64
2022-09-13T07:55:08.235Z,22.53
2022-09-13T07:57:45.865Z,22.47
2022-09-13T08:00:24.070Z,22.71
2022-09-13T08:02:58.724Z,22.66
2022-09-13T08:05:33.526Z,22.74
2022-09-13T08:08:02.345Z,22.58
2022-09-13T08:10:30.951Z,22.48
2022-09-13T08:13:02.586Z,22.68
2022-09-13T08:15:31.132Z,22.86
2022-09-13T08:17:59.852Z,22.85
2022-09-13T08:20:28.750Z,22.98
2022-09-13T08:22:57.834Z,22.78
2022-09-13T08:25:31.442Z,22.30
2022-09-13T08:28:00.623Z,22.49
2022-09-13T08:30:33.964Z,22.41
2022-09-13T08:33:03.922Z,22.07
2022-09-13T08:35:37.218Z,21.81
2022-09-13T08:38:12.399Z,21.70
2022-09-13T08:40:50.355Z,21.79
2022-09-13T08:43:45.348Z,21.90
2022-09-13T08:46:31.885Z,22.12
2022-09-13T08:49:26.611Z,22.54
2022-09-13T08:52:04.207Z,22.76
2022-09-13T08:54:35.327Z,22.62
2022-09-13T08:57:42.507Z,22.36
2022-09-13T09:00:20.679Z,22.59
2022-09-13T09:06:03.464Z,22.10
2022-09-13T09:06:19.002Z,22.54
2022-09-13T09:08:47.743Z,21.80
2022-09-13T09:11:36.590Z,21.45
2022-09-13T09:14:32.541Z,21.30
2022-09-13T09:17:18.627Z,21.14
2022-09-13T09:20:29.196Z,21.06
2022-09-13T09:22:58.370Z,21.48
2022-09-13T09:25:36.113Z,21.74
2022-09-13T09:28:14.551Z,21.69
2022-09-13T09:31:11.272Z,21.59
2022-09-13T09:33:56.182Z,21.78
2022-09-13T09:36:25.873Z,21.97
2022-09-13T09:38:57.221Z,22.31
2022-09-13T09:41:38.805Z,22.38
2022-09-13T09:44:34.851Z,22.36
2022-09-13T09:47:13.926Z,22.73
2022-09-13T09:50:12.914Z,22.99
2022-09-13T09:53:26.391Z,23.18
2022-09-13T09:56:42.661Z,23.46
2022-09-13T09:59:33.671Z,23.80
2022-09-13T10:02:20.894Z,24.03
2022-09-13T10:04:58.349Z,24.11
2022-09-13T10:07:27.817Z,23.82
2022-09-13T10:10:20.178Z,23.46
2022-09-13T10:13:00.005Z,23.21
2022-09-13T10:15:37.221Z,23.24
2022-09-13T10:18:43.016Z,23.71
2022-09-13T10:21:21.153Z,23.94
2022-09-13T10:23:51.798Z,24.08
2022-09-13T10:26:30.143Z,24.37
2022-09-13T10:29:12.412Z,24.42
2022-09-13T10:31:44.707Z,24.16
2022-09-13T10:34:24.884Z,23.83
2022-09-13T10:37:16.659Z,23.58
2022-09-13T10:40:02.107Z,23.73
2022-09-13T10:42:32.258Z,23.74
2022-09-13T10:45:08.257Z,23.54
2022-09-13T10:47:37.356Z,23.29
2022-09-13T10:50:32.878Z,23.07
2022-09-13T10:53:02.681Z,23.01
2022-09-13T10:55:49.109Z,22.88
2022-09-13T10:58:22.876Z,22.91
2022-09-13T11:01:59.823Z,23.23
2022-09-13T11:04:50.173Z,24.04
2022-09-13T11:08:14.089Z,24.42
2022-09-13T11:11:36.202Z,24.09
2022-09-13T11:14:17.041Z,23.92
2022-09-13T11:17:33.495Z,24.20
2022-09-13T11:20:34.026Z,24.61
2022-09-13T11:23:25.183Z,25.05
2022-09-13T11:26:10.317Z,25.48
2022-09-13T11:29:23.809Z,25.68
2022-09-13T11:32:33.351Z,25.78
2022-09-13T11:35:31.904Z,25.88
2022-09-13T11:38:47.383Z,26.06
2022-09-13T11:41:48.182Z,25.69
2022-09-13T11:44:39.913Z,25.15
2022-09-13T11:47:38.264Z,25.19
2022-09-13T11:50:45.942Z,25.29
2022-09-13T11:53:58.710Z,25.38
2022-09-13T11:56:54.748Z,25.10
2022-09-13T11:59:57.442Z,24.97
2022-09-13T12:02:39.800Z,24.60
2022-09-13T12:05:28.263Z,24.33
2022-09-13T12:08:23.763Z,24.09
2022-09-13T12:11:03.291Z,23.82
2022-09-13T12:13:47.217Z,23.74
2022-09-13T12:16:25.723Z,23.65
2022-09-13T12:19:03.383Z,23.53
2022-09-13T12:21:47.828Z,23.70
2022-09-13T12:24:50.219Z,24.09
2022-09-13T12:27:36.376Z,24.12
2022-09-13T12:30:21.106Z,24.17
2022-09-13T12:35:47.672Z,24.73
2022-09-13T12:38:58.663Z,24.80
2022-09-13T12:41:33.996Z,24.46
2022-09-13T12:44:43.127Z,24.01
2022-09-13T12:47:43.514Z,23.56
2022-09-13T12:50:44.010Z,23.23
2022-09-13T12:53:37.385Z,23.00
2022-09-13T12:56:44.498Z,23.03
2022-09-13T13:00:05.244Z,23.01
2022-09-13T13:03:14.979Z,22.92
2022-09-13T13:05:53.111Z,22.88
2022-09-13T13:08:22.338Z,22.90
2022-09-13T13:11:12.510Z,23.02
2022-09-13T13:13:47.479Z,23.12
2022-09-13T13:16:35.874Z,23.26
2022-09-13T13:19:31.542Z,23.29
2022-09-13T13:22:45.478Z,23.38
2022-09-13T13:25:34.722Z,23.19
2022-09-13T13:28:08.259Z,23.17
2022-09-13T13:33:58.014Z,23.45
2022-09-13T13:36:59.318Z,23.59
2022-09-13T13:39:28.892Z,23.73
2022-09-13T13:42:09.331Z,23.82
2022-09-13T13:44:39.284Z,23.68
2022-09-13T13:47:11.612Z,23.46
2022-09-13T13:49:51.458Z,23.33
2022-09-13T13:52:29.496Z,23.19
2022-09-13T13:55:05.945Z,23.06
2022-09-13T13:57:39.698Z,22.94
2022-09-13T14:00:21.818Z,22.94
2022-09-13T14:02:56.089Z,23.06
2022-09-13T14:05:50.927Z,23.10
2022-09-13T14:08:58.393Z,23.18
2022-09-13T14:11:57.299Z,23.39
2022-09-13T14:14:49.769Z,23.56
2022-09-13T14:17:39.486Z,23.62
2022-09-13T14:20:20.631Z,23.41
2022-09-13T14:22:55.496Z,23.23
2022-09-13T14:25:28.415Z,23.05
2022-09-13T14:28:04.217Z,22.91
2022-09-13T14:30:43.558Z,22.89
2022-09-13T14:33:32.314Z,22.90
2022-09-13T14:36:08.748Z,22.94
2022-09-13T14:38:39.535Z,22.87
2022-09-13T14:41:23.627Z,22.72
2022-09-13T14:43:53.362Z,22.56
2022-09-13T14:46:41.041Z,22.39
2022-09-13T14:49:17.888Z,22.27
2022-09-13T14:52:04.392Z,22.13
2022-09-13T14:54:46.134Z,22.00
2022-09-13T14:57:45.605Z,21.88
2022-09-13T15:00:27.506Z,21.74
2022-09-13T15:03:16.679Z,21.60
2022-09-13T15:06:04.902Z,21.48
2022-09-13T15:08:37.654Z,21.39
2022-09-13T15:11:09.902Z,21.36
2022-09-13T15:13:45.247Z,21.31
2022-09-13T15:16:34.884Z,21.26
2022-09-13T15:19:26.253Z,21.30
2022-09-13T15:22:05.840Z,21.34
2022-09-13T15:24:37.225Z,21.37
2022-09-13T15:27:20.070Z,21.29
2022-09-13T15:30:00.740Z,21.31
2022-09-13T15:32:46.612Z,21.64
2022-09-13T15:35:44.569Z,21.99
2022-09-13T15:38:35.308Z,22.08
2022-09-13T15:41:15.570Z,21.96
2022-09-13T15:43:47.683Z,21.70
2022-09-13T15:46:19.243Z,21.38
2022-09-13T15:49:08.119Z,21.15
2022-09-13T15:51:39.221Z,21.06
2022-09-13T15:54:13.443Z,20.88
2022-09-13T15:56:47.173Z,20.80
2022-09-13T15:59:25.684Z,20.71
2022-09-13T16:01:55.346Z,20.55
2022-09-13T16:04:27.704Z,20.47
2022-09-13T16:06:58.808Z,20.35
2022-09-13T16:09:33.854Z,20.27
2022-09-13T16:12:08.182Z,20.14
2022-09-13T16:14:40.163Z,19.96
2022-09-13T16:17:23.593Z,19.79
2022-09-13T16:19:53.263Z,19.59
2022-09-13T16:22:23.733Z,19.50
2022-09-13T16:25:00.946Z,19.40
2022-09-13T16:27:31.936Z,19.30
2022-09-13T16:30:05.040Z,19.09
2022-09-13T16:32:36.341Z,18.98
2022-09-13T16:35:04.967Z,18.93
2022-09-13T16:37:40.556Z,18.81
2022-09-13T16:40:14.177Z,18.65
2022-09-13T16:42:46.023Z,18.49
2022-09-13T16:45:18.033Z,18.37
2022-09-13T16:47:54.339Z,18.19
2022-09-13T16:50:25.438Z,18.04
2022-09-13T16:52:57.568Z,17.90
2022-09-13T16:55:29.619Z,17.75
2022-09-13T16:58:02.255Z,17.65
2022-09-13T17:00:38.202Z,17.51
2022-09-13T17:03:12.072Z,17.38
2022-09-13T17:05:51.965Z,17.17
2022-09-13T17:08:32.289Z,17.11
2022-09-13T17:11:08.041Z,17.05
2022-09-13T17:13:37.125Z,16.94
2022-09-13T17:16:08.743Z,16.91
2022-09-13T17:18:40.661Z,16.75
2022-09-13T17:21:12.895Z,16.59
2022-09-13T17:23:43.637Z,16.55
2022-09-13T17:26:16.439Z,16.48
2022-09-13T17:28:46.952Z,16.39
2022-09-13T17:31:20.336Z,16.33
2022-09-13T17:33:48.564Z,16.26
2022-09-13T17:36:16.547Z,16.10
2022-09-13T17:38:44.412Z,16.10
2022-09-13T17:41:18.919Z,16.01
2022-09-13T17:43:54.118Z,15.95
2022-09-13T17:46:26.461Z,15.87
2022-09-13T17:48:58.685Z,15.80
2022-09-13T17:51:30.510Z,15.67
2022-09-13T17:54:13.601Z,15.59
2022-09-13T17:57:01.195Z,15.49
2022-09-13T17:59:31.237Z,15.51
2022-09-13T18:02:06.112Z,15.36
2022-09-13T18:04:35.205Z,15.30
2022-09-13T18:07:03.455Z,15.22
2022-09-13T18:09:42.455Z,15.19
2022-09-13T18:12:10.606Z,15.12
2022-09-13T18:14:44.771Z,15.08
2022-09-13T18:18:19.373Z,15.02
2022-09-13T18:20:06.868Z,14.94
2022-09-13T18:22:37.649Z,14.92
2022-09-13T18:25:08.576Z,14.94
2022-09-13T18:27:36.141Z,14.94
2022-09-13T18:30:07.644Z,14.87
2022-09-13T18:32:40.732Z,14.84
2022-09-13T18:35:31.365Z,14.77
2022-09-13T18:38:31.982Z,14.71
2022-09-13T18:41:14.070Z,14.63
2022-09-13T18:43:48.114Z,14.60
2022-09-13T18:46:43.378Z,14.52
2022-09-13T18:49:20.223Z,14.48
2022-09-13T18:51:52.691Z,14.42
2022-09-13T18:54:24.359Z,14.33
2022-09-13T18:57:01.520Z,14.22
2022-09-13T18:59:36.595Z,14.20
2022-09-13T19:02:12.292Z,14.21
2022-09-13T19:04:45.032Z,14.19
2022-09-13T19:07:13.094Z,14.14
2022-09-13T19:09:49.532Z,14.04
2022-09-13T19:12:23.268Z,13.93
2022-09-13T19:14:55.587Z,13.96
2022-09-13T19:17:24.075Z,13.97
2022-09-13T19:19:55.827Z,13.80
2022-09-13T19:22:23.342Z,13.87
2022-09-13T19:24:53.339Z,13.80
2022-09-13T19:27:30.080Z,13.83
2022-09-13T19:29:59.491Z,13.82
2022-09-13T19:32:30.797Z,13.81
2022-09-13T19:38:21.580Z,13.82
2022-09-13T19:41:04.766Z,13.83
2022-09-13T19:43:54.601Z,13.83
2022-09-13T19:46:27.826Z,13.87
2022-09-13T19:48:57.195Z,13.74
2022-09-13T19:51:31.054Z,13.71
2022-09-13T19:54:01.074Z,13.79
2022-09-13T19:56:34.421Z,13.73
2022-09-13T19:59:02.558Z,13.58
2022-09-13T20:01:36.654Z,13.55
2022-09-13T20:04:12.267Z,13.49
2022-09-13T20:06:45.826Z,13.50
2022-09-13T20:09:15.799Z,13.52
2022-09-13T20:11:48.919Z,13.53
2022-09-13T20:14:22.875Z,13.55
2022-09-13T20:16:51.812Z,13.48
2022-09-13T20:22:12.642Z,13.37
2022-09-13T20:24:40.151Z,13.37
2022-09-13T20:27:08.370Z,13.38
2022-09-13T20:29:36.130Z,13.32
2022-09-13T20:32:17.685Z,13.31
2022-09-13T20:34:44.844Z,13.26
2022-09-13T20:37:15.679Z,13.22
2022-09-13T20:39:42.975Z,13.20
2022-09-13T20:42:14.173Z,13.18
2022-09-13T20:44:43.005Z,13.27
2022-09-13T20:47:12.022Z,13.25
2022-09-13T20:49:39.607Z,13.24
2022-09-13T20:52:06.674Z,13.22
2022-09-13T20:54:34.571Z,13.17
2022-09-13T20:57:02.097Z,13.19
2022-09-13T20:59:32.807Z,13.13
2022-09-13T21:02:00.150Z,13.21
2022-09-13T21:04:27.953Z,13.19
2022-09-13T21:07:14.990Z,13.19
2022-09-13T21:09:43.853Z,13.24
2022-09-13T21:12:20.461Z,13.30
2022-09-13T21:14:51.679Z,13.35
2022-09-13T21:17:19.349Z,13.33
2022-09-13T21:19:46.750Z,13.26
2022-09-13T21:22:15.014Z,13.26
2022-09-13T21:24:47.970Z,13.24
2022-09-13T21:27:15.634Z,13.19
2022-09-13T21:29:43.553Z,13.22
2022-09-13T21:32:10.836Z,13.18
2022-09-13T21:34:39.960Z,13.11
2022-09-13T21:37:07.384Z,13.13
2022-09-13T21:39:35.800Z,13.14
2022-09-13T21:42:04.506Z,13.11
2022-09-13T21:44:32.499Z,13.14
2022-09-13T21:47:03.227Z,13.07
2022-09-13T21:49:30.511Z,12.94
2022-09-13T21:51:57.803Z,12.91
2022-09-13T21:54:32.404Z,12.83
2022-09-13T21:57:00.424Z,12.81
2022-09-13T21:59:28.520Z,12.76
2022-09-13T22:01:58.993Z,12.69
2022-09-13T22:04:37.252Z,12.60
2022-09-13T22:07:05.550Z,12.58
2022-09-13T22:09:42.402Z,12.54
2022-09-13T22:12:13.881Z,12.60
2022-09-13T22:14:41.341Z,12.46
2022-09-13T22:17:09.177Z,12.52
2022-09-13T22:19:36.402Z,12.48
2022-09-13T22:22:04.294Z,12.38
2022-09-13T22:24:36.392Z,12.39
2022-09-13T22:27:04.161Z,12.29
2022-09-13T22:29:31.792Z,12.26
2022-09-13T22:32:01.599Z,12.19
2022-09-13T22:34:31.313Z,12.17
2022-09-13T22:37:00.763Z,12.10
2022-09-13T22:39:29.083Z,12.11
2022-09-13T22:41:57.608Z,12.13
2022-09-13T22:44:31.277Z,12.07
2022-09-13T22:47:01.025Z,12.02
2022-09-13T22:49:28.490Z,11.98
2022-09-13T22:52:00.619Z,11.94
2022-09-13T22:54:29.045Z,11.90
2022-09-13T22:56:56.102Z,11.85
2022-09-13T22:59:24.448Z,11.85
2022-09-13T23:01:51.784Z,11.84
2022-09-13T23:04:20.084Z,11.87
2022-09-13T23:06:51.334Z,11.85
2022-09-13T23:09:19.274Z,11.79
2022-09-13T23:11:46.969Z,11.75
2022-09-13T23:14:16.544Z,11.70
2022-09-13T23:16:52.264Z,11.64
2022-09-13T23:19:22.903Z,11.59
2022-09-13T23:22:00.350Z,11.62
2022-09-13T23:24:30.599Z,11.57
2022-09-13T23:26:58.593Z,11.58
2022-09-13T23:29:35.693Z,11.61
2022-09-13T23:32:04.066Z,11.53
2022-09-13T23:34:33.231Z,11.54
2022-09-13T23:37:12.442Z,11.49
2022-09-13T23:39:50.410Z,11.45
2022-09-13T23:42:26.908Z,11.42
2022-09-13T23:44:54.949Z,11.40
2022-09-13T23:47:21.927Z,11.41
2022-09-13T23:50:17.158Z,11.48
2022-09-13T23:53:20.473Z,11.46
2022-09-13T23:55:55.014Z,11.46
2022-09-13T23:58:23.780Z,11.39
